sensor_id;sensor_type;location;lat;lon;timestamp;P1;durP1;ratioP1;P2;durP2;ratioP2
21235;SDS011;10775;42.678;26.324;2024-03-23T00:51:03;4.47;;;2.60;;
21235;SDS011;10775;42.678;26.324;2024-03-23T00:53:29;3.92;;;2.42;;
21235;SDS011;10775;42.678;26.324;2024-03-23T00:55:55;8.02;;;2.47;;
21235;SDS011;10775;42.678;26.324;2024-03-23T00:58:20;3.78;;;2.60;;
21235;SDS011;10775;42.678;26.324;2024-03-23T01:00:46;8.60;;;3.03;;
21235;SDS011;10775;42.678;26.324;2024-03-23T01:03:11;3.42;;;2.33;;
21235;SDS011;10775;42.678;26.324;2024-03-23T01:05:37;4.05;;;2.67;;
21235;SDS011;10775;42.678;26.324;2024-03-23T01:08:02;4.32;;;2.13;;
21235;SDS011;10775;42.678;26.324;2024-03-23T01:10:27;4.13;;;2.50;;
21235;SDS011;10775;42.678;26.324;2024-03-23T01:12:53;4.65;;;2.63;;
21235;SDS011;10775;42.678;26.324;2024-03-23T01:15:18;4.18;;;2.13;;
21235;SDS011;10775;42.678;26.324;2024-03-23T01:17:44;3.92;;;2.10;;
21235;SDS011;10775;42.678;26.324;2024-03-23T01:20:09;3.95;;;2.05;;
21235;SDS011;10775;42.678;26.324;2024-03-23T01:22:35;3.50;;;2.42;;
21235;SDS011;10775;42.678;26.324;2024-03-23T01:25:00;3.95;;;2.25;;
21235;SDS011;10775;42.678;26.324;2024-03-23T01:27:26;3.88;;;2.40;;
21235;SDS011;10775;42.678;26.324;2024-03-23T01:29:51;4.28;;;2.88;;
21235;SDS011;10775;42.678;26.324;2024-03-23T01:32:17;4.00;;;2.35;;
21235;SDS011;10775;42.678;26.324;2024-03-23T01:34:43;3.80;;;2.30;;
21235;SDS011;10775;42.678;26.324;2024-03-23T01:37:09;5.07;;;2.63;;
21235;SDS011;10775;42.678;26.324;2024-03-23T01:39:34;4.35;;;2.50;;
21235;SDS011;10775;42.678;26.324;2024-03-23T01:42:00;3.25;;;2.17;;
21235;SDS011;10775;42.678;26.324;2024-03-23T01:44:25;4.25;;;2.60;;
21235;SDS011;10775;42.678;26.324;2024-03-23T01:46:51;7.65;;;2.60;;
21235;SDS011;10775;42.678;26.324;2024-03-23T01:49:16;4.50;;;2.63;;
21235;SDS011;10775;42.678;26.324;2024-03-23T01:51:42;4.25;;;2.75;;
21235;SDS011;10775;42.678;26.324;2024-03-23T01:54:09;3.28;;;2.33;;
21235;SDS011;10775;42.678;26.324;2024-03-23T01:56:35;3.42;;;2.38;;
21235;SDS011;10775;42.678;26.324;2024-03-23T01:59:04;3.00;;;2.15;;
21235;SDS011;10775;42.678;26.324;2024-03-23T02:01:30;3.63;;;2.40;;
21235;SDS011;10775;42.678;26.324;2024-03-23T02:03:57;5.03;;;2.40;;
21235;SDS011;10775;42.678;26.324;2024-03-23T02:06:23;3.95;;;2.35;;
21235;SDS011;10775;42.678;26.324;2024-03-23T02:08:49;3.42;;;2.38;;
21235;SDS011;10775;42.678;26.324;2024-03-23T02:11:15;3.13;;;2.22;;
21235;SDS011;10775;42.678;26.324;2024-03-23T02:13:41;3.30;;;2.15;;
21235;SDS011;10775;42.678;26.324;2024-03-23T02:16:06;3.80;;;2.75;;
21235;SDS011;10775;42.678;26.324;2024-03-23T02:18:35;3.28;;;2.60;;
21235;SDS011;10775;42.678;26.324;2024-03-23T02:21:00;3.80;;;2.40;;
21235;SDS011;10775;42.678;26.324;2024-03-23T02:23:26;5.10;;;3.15;;
21235;SDS011;10775;42.678;26.324;2024-03-23T02:25:51;3.92;;;2.60;;
21235;SDS011;10775;42.678;26.324;2024-03-23T02:28:18;5.90;;;2.63;;
21235;SDS011;10775;42.678;26.324;2024-03-23T02:30:44;4.63;;;2.17;;
21235;SDS011;10775;42.678;26.324;2024-03-23T02:33:09;4.20;;;2.13;;
21235;SDS011;10775;42.678;26.324;2024-03-23T02:35:35;2.97;;;2.17;;
21235;SDS011;10775;42.678;26.324;2024-03-23T02:38:00;3.15;;;2.08;;
21235;SDS011;10775;42.678;26.324;2024-03-23T02:40:26;4.32;;;2.45;;
21235;SDS011;10775;42.678;26.324;2024-03-23T02:42:52;3.65;;;2.40;;
21235;SDS011;10775;42.678;26.324;2024-03-23T02:45:18;5.13;;;2.65;;
21235;SDS011;10775;42.678;26.324;2024-03-23T02:47:43;3.88;;;2.58;;
21235;SDS011;10775;42.678;26.324;2024-03-23T02:50:09;3.53;;;2.47;;
21235;SDS011;10775;42.678;26.324;2024-03-23T02:52:35;3.33;;;2.63;;
21235;SDS011;10775;42.678;26.324;2024-03-23T02:55:01;4.28;;;2.60;;
21235;SDS011;10775;42.678;26.324;2024-03-23T02:57:30;4.50;;;2.45;;
21235;SDS011;10775;42.678;26.324;2024-03-23T02:59:55;4.47;;;2.90;;
21235;SDS011;10775;42.678;26.324;2024-03-23T03:02:21;5.28;;;2.92;;
21235;SDS011;10775;42.678;26.324;2024-03-23T03:04:46;3.53;;;2.33;;
21235;SDS011;10775;42.678;26.324;2024-03-23T03:07:13;4.45;;;2.70;;
21235;SDS011;10775;42.678;26.324;2024-03-23T03:09:38;4.88;;;2.63;;
21235;SDS011;10775;42.678;26.324;2024-03-23T03:12:05;3.60;;;2.38;;
21235;SDS011;10775;42.678;26.324;2024-03-23T03:14:31;3.47;;;2.30;;
21235;SDS011;10775;42.678;26.324;2024-03-23T03:16:56;5.57;;;2.70;;
21235;SDS011;10775;42.678;26.324;2024-03-23T03:19:22;4.28;;;2.35;;
21235;SDS011;10775;42.678;26.324;2024-03-23T03:21:47;4.07;;;2.53;;
21235;SDS011;10775;42.678;26.324;2024-03-23T03:24:13;3.15;;;2.20;;
21235;SDS011;10775;42.678;26.324;2024-03-23T03:26:38;4.25;;;2.40;;
21235;SDS011;10775;42.678;26.324;2024-03-23T03:29:04;3.53;;;2.20;;
21235;SDS011;10775;42.678;26.324;2024-03-23T03:31:29;3.72;;;2.40;;
21235;SDS011;10775;42.678;26.324;2024-03-23T03:33:55;3.53;;;2.33;;
21235;SDS011;10775;42.678;26.324;2024-03-23T03:36:20;4.35;;;2.08;;
21235;SDS011;10775;42.678;26.324;2024-03-23T03:38:46;4.43;;;2.40;;
21235;SDS011;10775;42.678;26.324;2024-03-23T03:41:11;3.67;;;2.40;;
21235;SDS011;10775;42.678;26.324;2024-03-23T03:43:37;3.58;;;2.35;;
21235;SDS011;10775;42.678;26.324;2024-03-23T03:46:03;3.60;;;2.47;;
21235;SDS011;10775;42.678;26.324;2024-03-23T03:48:29;3.80;;;2.60;;
21235;SDS011;10775;42.678;26.324;2024-03-23T03:50:54;3.88;;;2.60;;
21235;SDS011;10775;42.678;26.324;2024-03-23T03:53:20;4.90;;;2.58;;
21235;SDS011;10775;42.678;26.324;2024-03-23T03:55:46;4.70;;;2.42;;
21235;SDS011;10775;42.678;26.324;2024-03-23T03:58:11;3.45;;;2.50;;
21235;SDS011;10775;42.678;26.324;2024-03-23T04:00:37;4.47;;;2.38;;
21235;SDS011;10775;42.678;26.324;2024-03-23T04:03:02;4.18;;;2.72;;
21235;SDS011;10775;42.678;26.324;2024-03-23T04:05:28;4.50;;;2.55;;
21235;SDS011;10775;42.678;26.324;2024-03-23T04:07:53;3.95;;;2.88;;
21235;SDS011;10775;42.678;26.324;2024-03-23T04:10:19;4.68;;;2.75;;
21235;SDS011;10775;42.678;26.324;2024-03-23T04:12:46;3.47;;;2.35;;
21235;SDS011;10775;42.678;26.324;2024-03-23T04:15:12;3.90;;;2.50;;
21235;SDS011;10775;42.678;26.324;2024-03-23T04:17:38;3.78;;;2.47;;
21235;SDS011;10775;42.678;26.324;2024-03-23T04:20:04;3.92;;;2.60;;
21235;SDS011;10775;42.678;26.324;2024-03-23T04:22:34;4.15;;;2.45;;
21235;SDS011;10775;42.678;26.324;2024-03-23T04:24:59;4.45;;;2.50;;
21235;SDS011;10775;42.678;26.324;2024-03-23T04:27:25;3.78;;;2.13;;
21235;SDS011;10775;42.678;26.324;2024-03-23T04:29:50;4.32;;;2.42;;
21235;SDS011;10775;42.678;26.324;2024-03-23T04:32:16;5.60;;;2.42;;
21235;SDS011;10775;42.678;26.324;2024-03-23T04:34:43;5.40;;;3.03;;
21235;SDS011;10775;42.678;26.324;2024-03-23T04:37:08;4.80;;;2.50;;
21235;SDS011;10775;42.678;26.324;2024-03-23T04:39:35;3.60;;;2.42;;
21235;SDS011;10775;42.678;26.324;2024-03-23T04:42:02;4.05;;;2.60;;
21235;SDS011;10775;42.678;26.324;2024-03-23T04:44:28;5.13;;;2.67;;
21235;SDS011;10775;42.678;26.324;2024-03-23T04:46:53;4.07;;;2.47;;
21235;SDS011;10775;42.678;26.324;2024-03-23T04:49:19;3.45;;;2.47;;
21235;SDS011;10775;42.678;26.324;2024-03-23T04:51:44;2.88;;;2.17;;
21235;SDS011;10775;42.678;26.324;2024-03-23T04:54:14;4.05;;;2.53;;
21235;SDS011;10775;42.678;26.324;2024-03-23T04:56:40;3.92;;;2.63;;
21235;SDS011;10775;42.678;26.324;2024-03-23T04:59:05;3.55;;;2.53;;
21235;SDS011;10775;42.678;26.324;2024-03-23T05:01:31;4.07;;;2.53;;
21235;SDS011;10775;42.678;26.324;2024-03-23T05:03:58;6.18;;;2.72;;
21235;SDS011;10775;42.678;26.324;2024-03-23T05:06:23;4.65;;;2.90;;
21235;SDS011;10775;42.678;26.324;2024-03-23T05:08:50;5.47;;;2.50;;
21235;SDS011;10775;42.678;26.324;2024-03-23T05:11:16;5.97;;;3.05;;
21235;SDS011;10775;42.678;26.324;2024-03-23T05:13:41;3.90;;;2.65;;
21235;SDS011;10775;42.678;26.324;2024-03-23T05:16:07;3.67;;;2.50;;
21235;SDS011;10775;42.678;26.324;2024-03-23T05:18:33;5.00;;;2.70;;
21235;SDS011;10775;42.678;26.324;2024-03-23T05:20:59;4.05;;;2.22;;
21235;SDS011;10775;42.678;26.324;2024-03-23T05:23:25;3.20;;;2.15;;
21235;SDS011;10775;42.678;26.324;2024-03-23T05:25:51;4.43;;;2.25;;
21235;SDS011;10775;42.678;26.324;2024-03-23T05:28:17;4.30;;;2.78;;
21235;SDS011;10775;42.678;26.324;2024-03-23T05:30:43;3.60;;;2.65;;
21235;SDS011;10775;42.678;26.324;2024-03-23T05:33:08;3.97;;;2.33;;
21235;SDS011;10775;42.678;26.324;2024-03-23T05:35:34;5.28;;;2.65;;
21235;SDS011;10775;42.678;26.324;2024-03-23T05:37:59;4.82;;;2.58;;
21235;SDS011;10775;42.678;26.324;2024-03-23T05:40:26;3.53;;;2.33;;
21235;SDS011;10775;42.678;26.324;2024-03-23T05:42:52;3.47;;;2.53;;
21235;SDS011;10775;42.678;26.324;2024-03-23T05:45:23;5.47;;;2.97;;
21235;SDS011;10775;42.678;26.324;2024-03-23T05:47:48;4.05;;;2.58;;
21235;SDS011;10775;42.678;26.324;2024-03-23T05:50:14;4.85;;;3.05;;
21235;SDS011;10775;42.678;26.324;2024-03-23T05:52:40;4.93;;;3.10;;
21235;SDS011;10775;42.678;26.324;2024-03-23T05:55:06;5.22;;;3.10;;
21235;SDS011;10775;42.678;26.324;2024-03-23T05:57:31;5.53;;;3.03;;
21235;SDS011;10775;42.678;26.324;2024-03-23T05:59:57;6.80;;;3.45;;
21235;SDS011;10775;42.678;26.324;2024-03-23T06:02:23;5.82;;;3.17;;
21235;SDS011;10775;42.678;26.324;2024-03-23T06:04:49;7.93;;;3.38;;
21235;SDS011;10775;42.678;26.324;2024-03-23T06:07:14;6.90;;;3.70;;
21235;SDS011;10775;42.678;26.324;2024-03-23T06:09:40;6.55;;;3.20;;
21235;SDS011;10775;42.678;26.324;2024-03-23T06:12:07;6.82;;;3.50;;
21235;SDS011;10775;42.678;26.324;2024-03-23T06:14:33;7.95;;;3.40;;
21235;SDS011;10775;42.678;26.324;2024-03-23T06:16:59;9.98;;;4.53;;
21235;SDS011;10775;42.678;26.324;2024-03-23T06:19:25;23.55;;;13.70;;
21235;SDS011;10775;42.678;26.324;2024-03-23T06:21:55;8.35;;;4.43;;
21235;SDS011;10775;42.678;26.324;2024-03-23T06:24:21;11.27;;;5.53;;
21235;SDS011;10775;42.678;26.324;2024-03-23T06:26:47;9.68;;;4.70;;
21235;SDS011;10775;42.678;26.324;2024-03-23T06:29:13;7.40;;;4.63;;
21235;SDS011;10775;42.678;26.324;2024-03-23T06:31:38;8.20;;;5.38;;
21235;SDS011;10775;42.678;26.324;2024-03-23T06:34:04;8.82;;;4.85;;
21235;SDS011;10775;42.678;26.324;2024-03-23T06:36:29;10.88;;;4.50;;
21235;SDS011;10775;42.678;26.324;2024-03-23T06:38:56;12.52;;;4.82;;
21235;SDS011;10775;42.678;26.324;2024-03-23T06:41:21;9.00;;;4.80;;
21235;SDS011;10775;42.678;26.324;2024-03-23T06:43:47;8.63;;;5.30;;
21235;SDS011;10775;42.678;26.324;2024-03-23T06:46:13;9.52;;;6.05;;
21235;SDS011;10775;42.678;26.324;2024-03-23T06:48:39;11.55;;;6.15;;
21235;SDS011;10775;42.678;26.324;2024-03-23T06:51:04;8.10;;;4.07;;
21235;SDS011;10775;42.678;26.324;2024-03-23T06:53:29;8.68;;;4.82;;
21235;SDS011;10775;42.678;26.324;2024-03-23T06:55:55;8.48;;;4.78;;
21235;SDS011;10775;42.678;26.324;2024-03-23T06:58:23;8.23;;;4.28;;
21235;SDS011;10775;42.678;26.324;2024-03-23T07:00:50;9.18;;;4.72;;
21235;SDS011;10775;42.678;26.324;2024-03-23T07:03:18;6.35;;;3.47;;
21235;SDS011;10775;42.678;26.324;2024-03-23T07:05:44;8.15;;;4.72;;
21235;SDS011;10775;42.678;26.324;2024-03-23T07:08:11;8.90;;;4.55;;
21235;SDS011;10775;42.678;26.324;2024-03-23T07:10:39;7.35;;;4.43;;
21235;SDS011;10775;42.678;26.324;2024-03-23T07:13:05;9.48;;;4.32;;
21235;SDS011;10775;42.678;26.324;2024-03-23T07:15:30;7.07;;;4.65;;
21235;SDS011;10775;42.678;26.324;2024-03-23T07:17:56;7.35;;;4.78;;
21235;SDS011;10775;42.678;26.324;2024-03-23T07:20:21;9.25;;;5.22;;
21235;SDS011;10775;42.678;26.324;2024-03-23T07:22:47;7.75;;;4.88;;
21235;SDS011;10775;42.678;26.324;2024-03-23T07:25:12;11.38;;;6.30;;
21235;SDS011;10775;42.678;26.324;2024-03-23T07:27:38;11.95;;;6.32;;
21235;SDS011;10775;42.678;26.324;2024-03-23T07:30:04;8.20;;;5.15;;
21235;SDS011;10775;42.678;26.324;2024-03-23T07:32:30;10.00;;;5.40;;
21235;SDS011;10775;42.678;26.324;2024-03-23T07:34:55;7.88;;;4.25;;
21235;SDS011;10775;42.678;26.324;2024-03-23T07:37:21;10.07;;;4.80;;
21235;SDS011;10775;42.678;26.324;2024-03-23T07:39:46;7.78;;;4.30;;
21235;SDS011;10775;42.678;26.324;2024-03-23T07:42:12;7.03;;;4.07;;
21235;SDS011;10775;42.678;26.324;2024-03-23T07:44:37;7.00;;;4.25;;
21235;SDS011;10775;42.678;26.324;2024-03-23T07:47:02;8.00;;;5.00;;
21235;SDS011;10775;42.678;26.324;2024-03-23T07:49:28;8.70;;;4.75;;
21235;SDS011;10775;42.678;26.324;2024-03-23T07:51:54;10.15;;;5.10;;
21235;SDS011;10775;42.678;26.324;2024-03-23T07:54:19;9.95;;;5.13;;
21235;SDS011;10775;42.678;26.324;2024-03-23T07:56:44;11.00;;;5.85;;
21235;SDS011;10775;42.678;26.324;2024-03-23T07:59:10;10.40;;;5.68;;
21235;SDS011;10775;42.678;26.324;2024-03-23T08:01:36;12.90;;;6.93;;
21235;SDS011;10775;42.678;26.324;2024-03-23T08:04:02;9.05;;;5.03;;
21235;SDS011;10775;42.678;26.324;2024-03-23T08:06:27;9.77;;;5.20;;
21235;SDS011;10775;42.678;26.324;2024-03-23T08:08:54;8.25;;;5.13;;
21235;SDS011;10775;42.678;26.324;2024-03-23T08:11:30;9.20;;;5.20;;
21235;SDS011;10775;42.678;26.324;2024-03-23T08:16:22;9.43;;;5.15;;
21235;SDS011;10775;42.678;26.324;2024-03-23T08:18:51;7.28;;;4.45;;
21235;SDS011;10775;42.678;26.324;2024-03-23T08:21:17;10.13;;;5.45;;
21235;SDS011;10775;42.678;26.324;2024-03-23T08:23:43;10.95;;;6.35;;
21235;SDS011;10775;42.678;26.324;2024-03-23T08:26:10;10.48;;;6.15;;
21235;SDS011;10775;42.678;26.324;2024-03-23T08:28:36;13.82;;;7.28;;
21235;SDS011;10775;42.678;26.324;2024-03-23T08:31:09;13.30;;;6.65;;
21235;SDS011;10775;42.678;26.324;2024-03-23T08:33:36;11.55;;;5.38;;
21235;SDS011;10775;42.678;26.324;2024-03-23T08:36:05;8.48;;;4.72;;
21235;SDS011;10775;42.678;26.324;2024-03-23T08:38:32;9.13;;;5.40;;
21235;SDS011;10775;42.678;26.324;2024-03-23T08:40:59;6.65;;;3.97;;
21235;SDS011;10775;42.678;26.324;2024-03-23T08:43:37;7.78;;;4.90;;
21235;SDS011;10775;42.678;26.324;2024-03-23T08:46:11;10.38;;;5.60;;
21235;SDS011;10775;42.678;26.324;2024-03-23T08:48:38;9.50;;;3.97;;
21235;SDS011;10775;42.678;26.324;2024-03-23T08:51:06;10.48;;;5.43;;
21235;SDS011;10775;42.678;26.324;2024-03-23T08:53:32;11.63;;;5.53;;
21235;SDS011;10775;42.678;26.324;2024-03-23T08:55:59;9.15;;;5.72;;
21235;SDS011;10775;42.678;26.324;2024-03-23T08:58:26;7.05;;;4.50;;
21235;SDS011;10775;42.678;26.324;2024-03-23T09:00:53;9.07;;;5.10;;
21235;SDS011;10775;42.678;26.324;2024-03-23T09:03:25;7.18;;;4.57;;
21235;SDS011;10775;42.678;26.324;2024-03-23T09:05:51;10.30;;;6.00;;
21235;SDS011;10775;42.678;26.324;2024-03-23T09:08:17;10.23;;;6.00;;
21235;SDS011;10775;42.678;26.324;2024-03-23T09:10:42;8.40;;;4.95;;
21235;SDS011;10775;42.678;26.324;2024-03-23T09:13:08;8.20;;;4.50;;
21235;SDS011;10775;42.678;26.324;2024-03-23T09:15:34;7.88;;;4.72;;
21235;SDS011;10775;42.678;26.324;2024-03-23T09:18:01;8.15;;;5.15;;
21235;SDS011;10775;42.678;26.324;2024-03-23T09:20:26;8.52;;;4.82;;
21235;SDS011;10775;42.678;26.324;2024-03-23T09:22:52;7.90;;;4.78;;
21235;SDS011;10775;42.678;26.324;2024-03-23T09:25:17;9.10;;;4.50;;
21235;SDS011;10775;42.678;26.324;2024-03-23T09:27:44;8.60;;;4.43;;
21235;SDS011;10775;42.678;26.324;2024-03-23T09:30:11;9.35;;;4.95;;
21235;SDS011;10775;42.678;26.324;2024-03-23T09:32:37;7.07;;;4.35;;
21235;SDS011;10775;42.678;26.324;2024-03-23T09:35:03;7.22;;;4.50;;
21235;SDS011;10775;42.678;26.324;2024-03-23T09:37:28;10.10;;;5.95;;
21235;SDS011;10775;42.678;26.324;2024-03-23T09:39:54;8.93;;;5.65;;
21235;SDS011;10775;42.678;26.324;2024-03-23T09:42:19;12.60;;;7.57;;
21235;SDS011;10775;42.678;26.324;2024-03-23T09:44:45;9.35;;;6.13;;
21235;SDS011;10775;42.678;26.324;2024-03-23T09:47:11;9.63;;;4.35;;
21235;SDS011;10775;42.678;26.324;2024-03-23T09:49:37;17.42;;;11.50;;
21235;SDS011;10775;42.678;26.324;2024-03-23T09:52:03;8.63;;;3.85;;
21235;SDS011;10775;42.678;26.324;2024-03-23T09:54:29;12.02;;;5.90;;
21235;SDS011;10775;42.678;26.324;2024-03-23T09:56:55;6.47;;;4.72;;
21235;SDS011;10775;42.678;26.324;2024-03-23T09:59:20;13.32;;;6.97;;
21235;SDS011;10775;42.678;26.324;2024-03-23T10:01:46;6.60;;;3.67;;
21235;SDS011;10775;42.678;26.324;2024-03-23T10:04:33;7.05;;;3.65;;
21235;SDS011;10775;42.678;26.324;2024-03-23T10:07:14;6.60;;;4.20;;
21235;SDS011;10775;42.678;26.324;2024-03-23T10:09:46;8.10;;;4.65;;
21235;SDS011;10775;42.678;26.324;2024-03-23T10:12:13;7.78;;;4.78;;
21235;SDS011;10775;42.678;26.324;2024-03-23T10:14:41;7.95;;;4.18;;
21235;SDS011;10775;42.678;26.324;2024-03-23T10:17:17;8.18;;;4.20;;
21235;SDS011;10775;42.678;26.324;2024-03-23T10:19:44;5.75;;;3.60;;
21235;SDS011;10775;42.678;26.324;2024-03-23T10:22:13;6.05;;;3.50;;
21235;SDS011;10775;42.678;26.324;2024-03-23T10:24:40;5.18;;;3.05;;
21235;SDS011;10775;42.678;26.324;2024-03-23T10:27:06;5.32;;;2.85;;
21235;SDS011;10775;42.678;26.324;2024-03-23T10:29:32;6.80;;;3.67;;
21235;SDS011;10775;42.678;26.324;2024-03-23T10:32:10;5.95;;;3.25;;
21235;SDS011;10775;42.678;26.324;2024-03-23T10:34:36;4.63;;;2.83;;
21235;SDS011;10775;42.678;26.324;2024-03-23T10:37:03;8.13;;;4.22;;
21235;SDS011;10775;42.678;26.324;2024-03-23T10:39:38;5.20;;;2.67;;
21235;SDS011;10775;42.678;26.324;2024-03-23T10:42:05;6.35;;;3.78;;
21235;SDS011;10775;42.678;26.324;2024-03-23T10:44:40;5.65;;;3.65;;
21235;SDS011;10775;42.678;26.324;2024-03-23T10:47:05;6.95;;;3.78;;
21235;SDS011;10775;42.678;26.324;2024-03-23T10:49:35;5.80;;;3.60;;
21235;SDS011;10775;42.678;26.324;2024-03-23T10:52:04;6.60;;;3.15;;
21235;SDS011;10775;42.678;26.324;2024-03-23T10:54:31;5.90;;;2.90;;
21235;SDS011;10775;42.678;26.324;2024-03-23T10:57:05;5.18;;;3.22;;
21235;SDS011;10775;42.678;26.324;2024-03-23T10:59:33;9.20;;;4.30;;
21235;SDS011;10775;42.678;26.324;2024-03-23T11:02:02;8.55;;;4.25;;
21235;SDS011;10775;42.678;26.324;2024-03-23T11:04:32;5.95;;;3.28;;
21235;SDS011;10775;42.678;26.324;2024-03-23T11:06:58;3.88;;;2.30;;
21235;SDS011;10775;42.678;26.324;2024-03-23T11:09:43;4.03;;;2.50;;
21235;SDS011;10775;42.678;26.324;2024-03-23T11:17:22;6.63;;;3.67;;
21235;SDS011;10775;42.678;26.324;2024-03-23T11:19:55;5.55;;;2.85;;
21235;SDS011;10775;42.678;26.324;2024-03-23T11:22:39;3.42;;;2.20;;
21235;SDS011;10775;42.678;26.324;2024-03-23T11:25:24;12.52;;;5.07;;
21235;SDS011;10775;42.678;26.324;2024-03-23T11:27:51;4.90;;;2.57;;
21235;SDS011;10775;42.678;26.324;2024-03-23T11:30:21;3.55;;;2.40;;
21235;SDS011;10775;42.678;26.324;2024-03-23T11:32:49;3.63;;;2.30;;
21235;SDS011;10775;42.678;26.324;2024-03-23T11:38:07;3.45;;;2.47;;
21235;SDS011;10775;42.678;26.324;2024-03-23T11:40:43;3.13;;;2.08;;
21235;SDS011;10775;42.678;26.324;2024-03-23T11:43:10;3.67;;;2.43;;
21235;SDS011;10775;42.678;26.324;2024-03-23T11:45:44;5.75;;;2.63;;
21235;SDS011;10775;42.678;26.324;2024-03-23T11:48:10;5.73;;;3.40;;
21235;SDS011;10775;42.678;26.324;2024-03-23T11:50:41;4.95;;;2.83;;
21235;SDS011;10775;42.678;26.324;2024-03-23T11:55:43;4.50;;;2.30;;
21235;SDS011;10775;42.678;26.324;2024-03-23T11:58:11;4.63;;;2.50;;
21235;SDS011;10775;42.678;26.324;2024-03-23T12:00:37;4.45;;;2.30;;
21235;SDS011;10775;42.678;26.324;2024-03-23T12:03:04;3.72;;;2.38;;
21235;SDS011;10775;42.678;26.324;2024-03-23T12:05:31;5.03;;;2.83;;
21235;SDS011;10775;42.678;26.324;2024-03-23T12:10:49;3.22;;;2.30;;
21235;SDS011;10775;42.678;26.324;2024-03-23T12:15:45;7.32;;;2.20;;
21235;SDS011;10775;42.678;26.324;2024-03-23T12:18:11;3.80;;;2.10;;
21235;SDS011;10775;42.678;26.324;2024-03-23T12:20:37;6.50;;;2.95;;
21235;SDS011;10775;42.678;26.324;2024-03-23T12:23:21;11.35;;;6.20;;
21235;SDS011;10775;42.678;26.324;2024-03-23T12:25:48;4.47;;;3.00;;
21235;SDS011;10775;42.678;26.324;2024-03-23T12:28:14;6.43;;;2.72;;
21235;SDS011;10775;42.678;26.324;2024-03-23T12:30:39;3.92;;;2.17;;
21235;SDS011;10775;42.678;26.324;2024-03-23T12:33:05;3.40;;;2.15;;
21235;SDS011;10775;42.678;26.324;2024-03-23T12:35:31;8.05;;;2.60;;
21235;SDS011;10775;42.678;26.324;2024-03-23T12:37:57;3.58;;;2.30;;
21235;SDS011;10775;42.678;26.324;2024-03-23T12:40:22;5.75;;;2.58;;
21235;SDS011;10775;42.678;26.324;2024-03-23T12:42:48;4.93;;;2.47;;
21235;SDS011;10775;42.678;26.324;2024-03-23T12:45:13;5.28;;;3.20;;
21235;SDS011;10775;42.678;26.324;2024-03-23T12:47:39;4.47;;;2.85;;
21235;SDS011;10775;42.678;26.324;2024-03-23T12:50:04;3.53;;;2.40;;
21235;SDS011;10775;42.678;26.324;2024-03-23T12:52:31;4.75;;;2.60;;
21235;SDS011;10775;42.678;26.324;2024-03-23T12:54:57;4.28;;;2.80;;
21235;SDS011;10775;42.678;26.324;2024-03-23T12:57:23;4.10;;;2.47;;
21235;SDS011;10775;42.678;26.324;2024-03-23T12:59:51;3.35;;;2.33;;
21235;SDS011;10775;42.678;26.324;2024-03-23T13:02:21;3.88;;;2.28;;
21235;SDS011;10775;42.678;26.324;2024-03-23T13:04:49;3.80;;;2.50;;
21235;SDS011;10775;42.678;26.324;2024-03-23T13:07:15;4.65;;;2.30;;
21235;SDS011;10775;42.678;26.324;2024-03-23T13:09:40;3.45;;;1.80;;
21235;SDS011;10775;42.678;26.324;2024-03-23T13:12:06;4.07;;;2.00;;
21235;SDS011;10775;42.678;26.324;2024-03-23T13:14:31;3.75;;;2.10;;
21235;SDS011;10775;42.678;26.324;2024-03-23T13:16:57;2.95;;;2.17;;
21235;SDS011;10775;42.678;26.324;2024-03-23T13:19:22;3.05;;;2.20;;
21235;SDS011;10775;42.678;26.324;2024-03-23T13:21:52;3.50;;;2.30;;
21235;SDS011;10775;42.678;26.324;2024-03-23T13:24:23;5.70;;;2.20;;
21235;SDS011;10775;42.678;26.324;2024-03-23T13:26:52;4.05;;;2.50;;
21235;SDS011;10775;42.678;26.324;2024-03-23T13:29:19;4.63;;;2.20;;
21235;SDS011;10775;42.678;26.324;2024-03-23T13:31:45;3.72;;;2.00;;
21235;SDS011;10775;42.678;26.324;2024-03-23T13:34:14;3.80;;;1.90;;
21235;SDS011;10775;42.678;26.324;2024-03-23T13:36:49;3.33;;;2.30;;
21235;SDS011;10775;42.678;26.324;2024-03-23T13:39:15;2.63;;;1.90;;
21235;SDS011;10775;42.678;26.324;2024-03-23T13:41:41;3.78;;;1.92;;
21235;SDS011;10775;42.678;26.324;2024-03-23T13:44:08;4.15;;;2.50;;
21235;SDS011;10775;42.678;26.324;2024-03-23T13:46:37;4.72;;;2.55;;
21235;SDS011;10775;42.678;26.324;2024-03-23T13:49:04;4.07;;;2.70;;
21235;SDS011;10775;42.678;26.324;2024-03-23T13:51:30;4.95;;;3.00;;
21235;SDS011;10775;42.678;26.324;2024-03-23T13:53:55;5.25;;;2.25;;
21235;SDS011;10775;42.678;26.324;2024-03-23T13:56:22;3.13;;;2.20;;
21235;SDS011;10775;42.678;26.324;2024-03-23T13:58:50;3.08;;;1.90;;
21235;SDS011;10775;42.678;26.324;2024-03-23T14:01:16;5.85;;;3.50;;
21235;SDS011;10775;42.678;26.324;2024-03-23T14:03:42;3.25;;;2.20;;
21235;SDS011;10775;42.678;26.324;2024-03-23T14:06:09;2.45;;;1.88;;
21235;SDS011;10775;42.678;26.324;2024-03-23T14:08:38;3.83;;;1.80;;
21235;SDS011;10775;42.678;26.324;2024-03-23T14:11:07;3.97;;;2.15;;
21235;SDS011;10775;42.678;26.324;2024-03-23T14:13:34;4.35;;;2.45;;
21235;SDS011;10775;42.678;26.324;2024-03-23T14:15:59;3.10;;;2.13;;
21235;SDS011;10775;42.678;26.324;2024-03-23T14:18:25;3.25;;;2.05;;
21235;SDS011;10775;42.678;26.324;2024-03-23T14:20:57;4.03;;;2.10;;
21235;SDS011;10775;42.678;26.324;2024-03-23T14:25:52;2.85;;;1.85;;
21235;SDS011;10775;42.678;26.324;2024-03-23T14:28:18;2.90;;;1.77;;
21235;SDS011;10775;42.678;26.324;2024-03-23T14:30:44;3.03;;;2.10;;
21235;SDS011;10775;42.678;26.324;2024-03-23T14:33:09;3.15;;;2.05;;
21235;SDS011;10775;42.678;26.324;2024-03-23T14:35:35;5.85;;;2.20;;
21235;SDS011;10775;42.678;26.324;2024-03-23T14:38:01;6.25;;;2.30;;
21235;SDS011;10775;42.678;26.324;2024-03-23T14:40:27;3.33;;;2.00;;
21235;SDS011;10775;42.678;26.324;2024-03-23T14:42:56;3.25;;;2.20;;
21235;SDS011;10775;42.678;26.324;2024-03-23T14:45:21;3.65;;;2.38;;
21235;SDS011;10775;42.678;26.324;2024-03-23T14:47:49;2.67;;;2.03;;
21235;SDS011;10775;42.678;26.324;2024-03-23T14:50:15;4.32;;;2.30;;
21235;SDS011;10775;42.678;26.324;2024-03-23T14:52:44;3.58;;;2.17;;
21235;SDS011;10775;42.678;26.324;2024-03-23T14:55:10;2.40;;;1.60;;
21235;SDS011;10775;42.678;26.324;2024-03-23T14:57:39;3.22;;;1.70;;
21235;SDS011;10775;42.678;26.324;2024-03-23T15:00:08;3.13;;;1.95;;
21235;SDS011;10775;42.678;26.324;2024-03-23T15:02:37;3.38;;;2.00;;
21235;SDS011;10775;42.678;26.324;2024-03-23T15:05:02;2.42;;;1.80;;
21235;SDS011;10775;42.678;26.324;2024-03-23T15:07:30;9.52;;;4.85;;
21235;SDS011;10775;42.678;26.324;2024-03-23T15:09:55;3.42;;;2.38;;
21235;SDS011;10775;42.678;26.324;2024-03-23T15:12:21;3.67;;;2.00;;
21235;SDS011;10775;42.678;26.324;2024-03-23T15:14:47;3.28;;;1.90;;
21235;SDS011;10775;42.678;26.324;2024-03-23T15:17:12;3.15;;;2.05;;
21235;SDS011;10775;42.678;26.324;2024-03-23T15:19:38;3.53;;;2.33;;
21235;SDS011;10775;42.678;26.324;2024-03-23T15:22:03;4.20;;;1.90;;
21235;SDS011;10775;42.678;26.324;2024-03-23T15:24:29;2.50;;;1.77;;
21235;SDS011;10775;42.678;26.324;2024-03-23T15:26:54;2.80;;;1.90;;
21235;SDS011;10775;42.678;26.324;2024-03-23T15:29:23;4.32;;;1.95;;
21235;SDS011;10775;42.678;26.324;2024-03-23T15:31:48;2.47;;;1.55;;
21235;SDS011;10775;42.678;26.324;2024-03-23T15:34:17;3.28;;;1.80;;
21235;SDS011;10775;42.678;26.324;2024-03-23T15:36:49;5.10;;;1.90;;
21235;SDS011;10775;42.678;26.324;2024-03-23T15:39:16;3.17;;;2.20;;
21235;SDS011;10775;42.678;26.324;2024-03-23T15:41:43;3.45;;;2.00;;